createdAt,value
2022-12-13T00:01:32.360Z,5.30
2022-12-13T00:04:01.655Z,5.20
2022-12-13T00:06:29.391Z,5.30
2022-12-13T00:08:56.179Z,5.20
2022-12-13T00:11:22.955Z,5.20
2022-12-13T00:13:49.917Z,5.20
2022-12-13T00:16:20.119Z,5.20
2022-12-13T00:18:55.796Z,5.30
2022-12-13T00:21:25.918Z,5.20
2022-12-13T00:23:53.064Z,5.20
2022-12-13T00:26:22.623Z,5.20
2022-12-13T00:28:51.206Z,5.20
2022-12-13T00:31:53.615Z,5.20
2022-12-13T00:34:06.038Z,5.20
2022-12-13T00:36:33.278Z,5.20
2022-12-13T00:39:02.845Z,5.30
2022-12-13T00:41:32.684Z,5.20
2022-12-13T00:43:59.893Z,5.20
2022-12-13T00:46:27.628Z,5.20
2022-12-13T00:48:59.763Z,5.30
2022-12-13T00:51:27.928Z,5.30
2022-12-13T00:53:54.679Z,5.30
2022-12-13T00:56:25.344Z,5.30
2022-12-13T00:58:53.869Z,5.20
2022-12-13T01:01:24.482Z,5.30
2022-12-13T01:03:53.358Z,5.30
2022-12-13T01:06:22.667Z,5.30
2022-12-13T01:08:49.465Z,5.30
2022-12-13T01:11:16.859Z,5.30
2022-12-13T01:13:43.530Z,5.30
2022-12-13T01:16:11.623Z,5.30
2022-12-13T01:18:39.841Z,5.30
2022-12-13T01:21:09.891Z,5.30
2022-12-13T01:23:36.619Z,5.30
2022-12-13T01:26:05.187Z,5.30
2022-12-13T01:28:32.511Z,5.30
2022-12-13T01:31:01.726Z,5.30
2022-12-13T01:33:29.619Z,5.30
2022-12-13T01:35:56.958Z,5.30
2022-12-13T01:38:26.275Z,5.20
2022-12-13T01:40:59.676Z,5.20
2022-12-13T01:43:46.861Z,5.10
2022-12-13T01:46:15.612Z,5.10
2022-12-13T01:49:00.763Z,5.10
2022-12-13T01:51:41.525Z,5.10
2022-12-13T01:54:11.664Z,5.00
2022-12-13T01:56:47.764Z,5.00
2022-12-13T01:59:17.844Z,5.00
2022-12-13T02:01:49.560Z,5.00
2022-12-13T02:04:59.788Z,5.00
2022-12-13T02:07:31.505Z,4.90
2022-12-13T02:10:01.186Z,4.90
2022-12-13T02:12:31.169Z,4.90
2022-12-13T02:15:01.183Z,5.00
2022-12-13T02:17:44.590Z,5.10
2022-12-13T02:20:27.251Z,5.00
2022-12-13T02:23:21.670Z,5.00
2022-12-13T02:26:03.541Z,5.10
2022-12-13T02:28:54.974Z,5.10
2022-12-13T02:31:44.150Z,5.10
2022-12-13T02:34:22.619Z,5.00
2022-12-13T02:37:20.165Z,5.10
2022-12-13T02:39:59.670Z,5.00
2022-12-13T02:42:52.332Z,5.00
2022-12-13T02:45:24.727Z,5.00
2022-12-13T02:47:55.703Z,5.00
2022-12-13T02:50:24.007Z,5.00
2022-12-13T02:52:52.131Z,5.00
2022-12-13T02:55:18.887Z,5.00
2022-12-13T02:57:46.131Z,5.00
2022-12-13T03:00:23.411Z,5.00
2022-12-13T03:03:05.225Z,5.00
2022-12-13T03:06:02.998Z,5.00
2022-12-13T03:08:54.933Z,5.00
2022-12-13T03:11:25.404Z,4.90
2022-12-13T03:13:58.915Z,4.90
2022-12-13T03:16:38.079Z,5.00
2022-12-13T03:19:07.542Z,5.00
2022-12-13T03:21:48.731Z,4.90
2022-12-13T03:24:20.731Z,4.90
2022-12-13T03:26:49.446Z,4.90
2022-12-13T03:29:24.014Z,5.00
2022-12-13T03:31:52.395Z,5.00
2022-12-13T03:34:22.534Z,5.00
2022-12-13T03:36:50.831Z,5.00
2022-12-13T03:39:17.624Z,5.00
2022-12-13T03:41:44.262Z,5.00
2022-12-13T03:44:10.844Z,5.00
2022-12-13T03:46:37.612Z,4.90
2022-12-13T03:49:04.324Z,5.00
2022-12-13T03:51:30.945Z,4.90
2022-12-13T03:53:57.528Z,5.00
2022-12-13T03:56:24.160Z,5.00
2022-12-13T03:58:50.773Z,5.00
2022-12-13T04:01:18.180Z,5.00
2022-12-13T04:03:46.604Z,5.00
2022-12-13T04:06:22.174Z,5.00
2022-12-13T04:08:51.426Z,5.00
2022-12-13T04:11:42.766Z,5.00
2022-12-13T04:14:10.873Z,4.90
2022-12-13T04:16:37.642Z,4.90
2022-12-13T04:19:04.323Z,4.90
2022-12-13T04:21:30.963Z,4.90
2022-12-13T04:24:00.886Z,4.90
2022-12-13T04:26:29.170Z,4.90
2022-12-13T04:28:56.230Z,4.90
2022-12-13T04:31:23.310Z,5.00
2022-12-13T04:33:50.441Z,5.00
2022-12-13T04:36:31.128Z,5.00
2022-12-13T04:39:00.949Z,4.90
2022-12-13T04:41:34.070Z,4.90
2022-12-13T04:44:01.992Z,4.90
2022-12-13T04:46:28.603Z,4.80
2022-12-13T04:48:55.204Z,4.90
2022-12-13T04:51:21.862Z,4.80
2022-12-13T04:53:48.430Z,4.80
2022-12-13T04:56:15.049Z,4.90
2022-12-13T04:58:41.698Z,5.00
2022-12-13T05:01:09.763Z,5.00
2022-12-13T05:03:37.189Z,5.00
2022-12-13T05:06:26.604Z,5.00
2022-12-13T05:08:54.759Z,5.00
2022-12-13T05:11:28.018Z,5.10
2022-12-13T05:14:03.021Z,5.10
2022-12-13T05:16:29.762Z,5.10
2022-12-13T05:18:56.379Z,5.10
2022-12-13T05:21:22.966Z,5.10
2022-12-13T05:23:49.544Z,5.10
2022-12-13T05:26:16.144Z,5.10
2022-12-13T05:28:42.712Z,5.10
2022-12-13T05:31:22.545Z,5.10
2022-12-13T05:33:51.350Z,5.10
2022-12-13T05:36:18.332Z,5.00
2022-12-13T05:38:44.914Z,5.00
2022-12-13T05:41:17.364Z,5.00
2022-12-13T05:43:44.073Z,5.00
2022-12-13T05:46:12.677Z,5.10
2022-12-13T05:48:39.559Z,5.10
2022-12-13T05:51:11.080Z,5.10
2022-12-13T05:53:42.020Z,5.10
2022-12-13T05:56:11.112Z,5.20
2022-12-13T05:58:39.450Z,5.20
2022-12-13T06:01:08.732Z,5.10
2022-12-13T06:03:36.031Z,5.10
2022-12-13T06:06:04.285Z,5.00
2022-12-13T06:08:31.601Z,5.10
2022-12-13T06:11:10.083Z,5.10
2022-12-13T06:13:44.091Z,5.10
2022-12-13T06:16:21.973Z,5.20
2022-12-13T06:18:59.018Z,5.20
2022-12-13T06:21:28.160Z,5.20
2022-12-13T06:23:55.218Z,5.20
2022-12-13T06:26:21.932Z,5.10
2022-12-13T06:28:48.550Z,5.10
2022-12-13T06:31:16.315Z,5.10
2022-12-13T06:33:43.221Z,5.20
2022-12-13T06:36:10.560Z,5.20
2022-12-13T06:38:43.280Z,5.20
2022-12-13T06:41:17.143Z,5.20
2022-12-13T06:43:47.797Z,5.10
2022-12-13T06:46:15.640Z,5.10
2022-12-13T06:48:42.412Z,5.10
2022-12-13T06:51:09.901Z,5.20
2022-12-13T06:53:38.090Z,5.20
2022-12-13T06:56:07.655Z,5.20
2022-12-13T06:58:35.071Z,5.20
2022-12-13T07:01:15.164Z,5.20
2022-12-13T07:03:51.661Z,5.20
2022-12-13T07:06:23.123Z,5.20
2022-12-13T07:08:52.353Z,5.20
2022-12-13T07:11:21.430Z,5.20
2022-12-13T07:13:48.237Z,5.20
2022-12-13T07:16:15.356Z,5.20
2022-12-13T07:18:42.062Z,5.20
2022-12-13T07:21:21.789Z,5.20
2022-12-13T07:23:54.837Z,5.20
2022-12-13T07:26:22.576Z,5.20
2022-12-13T07:28:54.636Z,5.20
2022-12-13T07:31:26.838Z,5.20
2022-12-13T07:33:53.699Z,5.20
2022-12-13T07:36:23.162Z,5.20
2022-12-13T07:38:54.855Z,5.20
2022-12-13T07:41:23.872Z,5.20
2022-12-13T07:43:55.232Z,5.20
2022-12-13T07:46:32.565Z,5.30
2022-12-13T07:49:04.516Z,5.20
2022-12-13T07:51:34.794Z,5.20
2022-12-13T07:54:06.949Z,5.10
2022-12-13T07:56:35.987Z,5.10
2022-12-13T07:59:03.155Z,5.20
2022-12-13T08:01:34.645Z,5.30
2022-12-13T08:04:05.096Z,5.30
2022-12-13T08:06:36.454Z,5.20
2022-12-13T08:09:03.504Z,5.10
2022-12-13T08:11:30.209Z,5.20
2022-12-13T08:13:56.924Z,5.30
2022-12-13T08:16:27.366Z,5.30
2022-12-13T08:19:03.087Z,5.30
2022-12-13T08:24:27.557Z,5.00
2022-12-13T08:26:56.735Z,5.00
2022-12-13T08:29:33.355Z,5.00
2022-12-13T08:32:10.294Z,5.10
2022-12-13T08:34:37.536Z,5.10
2022-12-13T08:37:04.839Z,5.00
2022-12-13T08:39:35.448Z,4.90
2022-12-13T08:42:15.031Z,4.90
2022-12-13T08:44:45.028Z,5.00
2022-12-13T08:47:11.672Z,5.10
2022-12-13T08:49:38.270Z,5.20
2022-12-13T08:52:04.934Z,5.30
2022-12-13T08:54:33.966Z,5.40
2022-12-13T08:57:01.758Z,5.40
2022-12-13T08:59:28.529Z,5.40
2022-12-13T09:01:58.800Z,5.40
2022-12-13T09:04:31.395Z,5.40
2022-12-13T09:07:01.378Z,5.40
2022-12-13T09:09:29.243Z,5.40
2022-12-13T09:11:59.158Z,5.50
2022-12-13T09:14:33.660Z,5.40
2022-12-13T09:17:02.825Z,5.40
2022-12-13T09:19:37.082Z,5.50
2022-12-13T09:22:04.821Z,5.40
2022-12-13T09:24:36.714Z,5.40
2022-12-13T09:27:09.869Z,5.40
2022-12-13T09:29:38.148Z,5.30
2022-12-13T09:32:05.230Z,5.20
2022-12-13T09:34:34.752Z,5.20
2022-12-13T09:37:01.990Z,5.30
2022-12-13T09:39:29.297Z,5.30
2022-12-13T09:42:00.750Z,5.30
2022-12-13T09:44:45.116Z,5.20
2022-12-13T09:47:23.374Z,5.20
2022-12-13T09:49:51.735Z,5.20
2022-12-13T09:52:23.293Z,5.30
2022-12-13T09:54:55.783Z,5.20
2022-12-13T09:57:34.199Z,5.20
2022-12-13T10:00:05.392Z,5.30
2022-12-13T10:02:46.528Z,5.30
2022-12-13T10:05:34.192Z,5.30
2022-12-13T10:08:40.413Z,5.20
2022-12-13T10:11:07.006Z,5.30
2022-12-13T10:13:54.610Z,5.30
2022-12-13T10:16:35.774Z,5.40
2022-12-13T10:19:29.059Z,5.40
2022-12-13T10:22:01.069Z,5.30
2022-12-13T10:24:48.583Z,5.30
2022-12-13T10:27:18.622Z,5.30
2022-12-13T10:30:13.199Z,5.30
2022-12-13T10:32:56.984Z,5.30
2022-12-13T10:35:37.390Z,5.40
2022-12-13T10:38:16.728Z,5.40
2022-12-13T10:40:46.593Z,5.50
2022-12-13T10:43:17.524Z,5.50
2022-12-13T10:45:56.742Z,5.60
2022-12-13T10:48:39.361Z,5.40
2022-12-13T10:51:10.161Z,5.40
2022-12-13T10:53:47.479Z,5.40
2022-12-13T10:56:23.312Z,5.50
2022-12-13T10:59:13.346Z,5.60
2022-12-13T11:01:42.146Z,5.70
2022-12-13T11:04:31.519Z,5.70
2022-12-13T11:07:21.584Z,5.80
2022-12-13T11:09:52.794Z,5.80
2022-12-13T11:12:25.623Z,5.90
2022-12-13T11:15:01.838Z,5.90
2022-12-13T11:17:31.648Z,5.90
2022-12-13T11:20:21.020Z,5.90
2022-12-13T11:22:49.418Z,5.90
2022-12-13T11:25:22.908Z,5.80
2022-12-13T11:28:01.516Z,5.90
2022-12-13T11:30:55.758Z,5.90
2022-12-13T11:33:51.923Z,5.90
2022-12-13T11:36:35.700Z,5.80
2022-12-13T11:39:33.747Z,5.80
2022-12-13T11:42:22.098Z,6.00
2022-12-13T11:45:22.777Z,5.90
2022-12-13T11:48:08.956Z,5.80
2022-12-13T11:50:40.414Z,5.90
2022-12-13T11:53:19.273Z,5.90
2022-12-13T11:56:08.031Z,5.70
2022-12-13T11:59:04.660Z,5.70
2022-12-13T12:01:40.498Z,5.50
2022-12-13T12:04:31.408Z,5.50
2022-12-13T12:07:35.686Z,5.60
2022-12-13T12:10:14.561Z,5.60
2022-12-13T12:12:45.810Z,5.70
2022-12-13T12:15:26.509Z,5.70
2022-12-13T12:17:57.598Z,5.70
2022-12-13T12:20:44.535Z,5.70
2022-12-13T12:23:52.322Z,5.80
2022-12-13T12:26:26.138Z,5.80
2022-12-13T12:29:12.512Z,5.80
2022-12-13T12:32:02.852Z,5.80
2022-12-13T12:35:12.354Z,5.60
2022-12-13T12:37:57.429Z,5.70
2022-12-13T12:43:43.800Z,5.70
2022-12-13T12:46:42.155Z,5.60
2022-12-13T12:49:53.848Z,5.70
2022-12-13T12:52:49.844Z,5.90
2022-12-13T12:55:41.301Z,6.10
2022-12-13T12:58:23.637Z,6.20
2022-12-13T13:01:00.535Z,6.20
2022-12-13T13:03:35.828Z,6.30
2022-12-13T13:06:12.238Z,6.30
2022-12-13T13:08:58.987Z,6.20
2022-12-13T13:11:28.909Z,6.20
2022-12-13T13:14:01.801Z,5.90
2022-12-13T13:16:32.936Z,5.80
2022-12-13T13:19:11.875Z,5.80
2022-12-13T13:21:53.617Z,5.80
2022-12-13T13:24:24.567Z,5.80
2022-12-13T13:26:59.814Z,5.80
2022-12-13T13:29:32.638Z,5.90
2022-12-13T13:32:04.992Z,5.80
2022-12-13T13:34:41.592Z,5.80
2022-12-13T13:37:23.742Z,5.80
2022-12-13T13:40:06.484Z,5.80
2022-12-13T13:42:33.368Z,6.00
2022-12-13T13:45:18.790Z,5.90
2022-12-13T13:48:14.457Z,5.80
2022-12-13T13:51:18.300Z,5.70
2022-12-13T13:54:06.666Z,5.80
2022-12-13T13:56:57.248Z,5.80
2022-12-13T13:59:57.852Z,5.90
2022-12-13T14:02:57.796Z,5.90
2022-12-13T14:05:57.968Z,5.90
2022-12-13T14:08:34.746Z,6.00
2022-12-13T14:11:17.729Z,6.10
2022-12-13T14:14:22.506Z,6.10
2022-12-13T14:17:16.922Z,6.10
2022-12-13T14:20:15.969Z,6.10
2022-12-13T14:23:07.621Z,6.10
2022-12-13T14:25:49.445Z,6.10
2022-12-13T14:28:52.598Z,6.20
2022-12-13T14:31:37.048Z,6.20
2022-12-13T14:34:07.390Z,6.20
2022-12-13T14:36:36.366Z,6.20
2022-12-13T14:39:24.635Z,6.20
2022-12-13T14:42:14.253Z,6.30
2022-12-13T14:44:40.851Z,6.30
2022-12-13T14:47:08.220Z,6.30
2022-12-13T14:49:51.425Z,6.20
2022-12-13T14:52:26.963Z,6.20
2022-12-13T14:55:04.584Z,6.20
2022-12-13T14:57:33.752Z,6.30
2022-12-13T15:00:21.396Z,6.30
2022-12-13T15:02:54.199Z,6.20
2022-12-13T15:05:30.100Z,6.10
2022-12-13T15:07:57.449Z,6.00
2022-12-13T15:10:37.502Z,5.90
2022-12-13T15:13:05.337Z,5.90
2022-12-13T15:15:37.233Z,5.80
2022-12-13T15:18:17.099Z,5.90
2022-12-13T15:20:54.611Z,5.90
2022-12-13T15:23:40.269Z,5.80
2022-12-13T15:26:28.412Z,5.80
2022-12-13T15:29:09.517Z,5.80
2022-12-13T15:31:37.894Z,5.90
2022-12-13T15:34:34.736Z,6.00
2022-12-13T15:37:29.049Z,5.90
2022-12-13T15:40:00.615Z,5.80
2022-12-13T15:42:33.311Z,5.70
2022-12-13T15:45:30.402Z,5.70
2022-12-13T15:48:01.720Z,5.70
2022-12-13T15:50:36.182Z,5.70
2022-12-13T15:53:06.712Z,5.60
2022-12-13T15:55:37.450Z,5.60
2022-12-13T15:58:19.568Z,5.50
2022-12-13T16:00:49.608Z,5.50
2022-12-13T16:03:21.147Z,5.60
2022-12-13T16:05:56.406Z,5.70
2022-12-13T16:08:35.700Z,5.60
2022-12-13T16:11:02.871Z,5.60
2022-12-13T16:13:32.978Z,5.60
2022-12-13T16:16:08.743Z,5.60
2022-12-13T16:18:50.752Z,5.60
2022-12-13T16:21:17.390Z,5.60
2022-12-13T16:23:48.958Z,5.60
2022-12-13T16:26:22.195Z,5.50
2022-12-13T16:28:49.002Z,5.50
2022-12-13T16:31:22.258Z,5.50
2022-12-13T16:33:49.381Z,5.40
2022-12-13T16:36:16.210Z,5.40
2022-12-13T16:38:42.827Z,5.40
2022-12-13T16:41:10.024Z,5.40
2022-12-13T16:43:57.963Z,5.40
2022-12-13T16:47:13.153Z,5.50
2022-12-13T16:49:25.038Z,5.50
2022-12-13T16:51:51.963Z,5.40
2022-12-13T16:54:21.628Z,5.40
2022-12-13T16:56:48.990Z,5.30
2022-12-13T16:59:22.411Z,5.40
2022-12-13T17:01:50.492Z,5.30
2022-12-13T17:04:26.912Z,5.10
2022-12-13T17:06:54.931Z,5.10
2022-12-13T17:09:23.189Z,5.10
2022-12-13T17:11:49.888Z,5.20
2022-12-13T17:14:16.555Z,5.30
2022-12-13T17:16:43.328Z,5.30
2022-12-13T17:19:12.034Z,5.30
2022-12-13T17:21:38.667Z,5.20
2022-12-13T17:24:05.877Z,5.20
2022-12-13T17:26:32.930Z,5.10
2022-12-13T17:28:59.568Z,5.30
2022-12-13T17:31:30.489Z,5.30
2022-12-13T17:34:02.593Z,5.10
2022-12-13T17:36:31.182Z,5.10
2022-12-13T17:38:57.990Z,5.10
2022-12-13T17:41:24.701Z,5.10
2022-12-13T17:43:51.314Z,5.20
2022-12-13T17:46:19.153Z,5.20
2022-12-13T17:48:46.590Z,5.10
2022-12-13T17:51:14.497Z,5.10
2022-12-13T17:53:42.819Z,5.20
2022-12-13T17:56:12.097Z,5.20
2022-12-13T17:58:39.935Z,5.20
2022-12-13T18:01:19.577Z,5.20
2022-12-13T18:03:48.738Z,5.20
2022-12-13T18:06:15.918Z,5.20
2022-12-13T18:08:44.383Z,5.10
2022-12-13T18:13:59.252Z,5.20
2022-12-13T18:16:34.055Z,5.10
2022-12-13T18:19:05.998Z,5.00
2022-12-13T18:21:33.016Z,4.90
2022-12-13T18:24:00.191Z,4.90
2022-12-13T18:26:26.787Z,5.00
2022-12-13T18:28:53.648Z,5.00
2022-12-13T18:31:23.128Z,5.00
2022-12-13T18:33:51.928Z,5.10
2022-12-13T18:36:19.831Z,5.10
2022-12-13T18:38:55.540Z,5.10
2022-12-13T18:41:24.520Z,4.90
2022-12-13T18:43:59.507Z,4.80
2022-12-13T18:46:28.557Z,4.80
2022-12-13T18:48:55.460Z,4.70
2022-12-13T18:51:22.485Z,4.80
2022-12-13T18:53:50.582Z,4.70
2022-12-13T18:56:19.014Z,4.60
2022-12-13T18:58:47.955Z,4.60
2022-12-13T19:01:15.890Z,4.60
2022-12-13T19:03:45.042Z,4.50
2022-12-13T19:06:16.706Z,4.60
2022-12-13T19:08:43.626Z,4.70
2022-12-13T19:11:10.865Z,4.80
2022-12-13T19:13:37.552Z,4.70
2022-12-13T19:16:07.289Z,4.60
2022-12-13T19:18:35.023Z,4.60
2022-12-13T19:21:01.803Z,4.70
2022-12-13T19:23:29.220Z,4.60
2022-12-13T19:25:56.311Z,4.70
2022-12-13T19:28:23.487Z,4.70
2022-12-13T19:30:50.153Z,4.80
2022-12-13T19:33:17.346Z,4.80
2022-12-13T19:35:46.706Z,4.70
2022-12-13T19:38:13.610Z,4.70
2022-12-13T19:40:42.097Z,4.60
2022-12-13T19:43:09.980Z,4.60
2022-12-13T19:45:36.617Z,4.60
2022-12-13T19:48:05.011Z,4.70
2022-12-13T19:50:31.682Z,4.60
2022-12-13T19:52:58.286Z,4.60
2022-12-13T19:55:24.899Z,4.50
2022-12-13T19:57:51.491Z,4.40
2022-12-13T20:00:18.129Z,4.40
2022-12-13T20:02:44.901Z,4.40
2022-12-13T20:05:11.786Z,4.50
2022-12-13T20:07:38.430Z,4.50
2022-12-13T20:10:05.955Z,4.50
2022-12-13T20:12:38.840Z,4.50
2022-12-13T20:15:08.121Z,4.50
2022-12-13T20:17:36.041Z,4.50
2022-12-13T20:20:04.112Z,4.50
2022-12-13T20:22:32.465Z,4.60
2022-12-13T20:25:00.128Z,4.60
2022-12-13T20:27:27.666Z,4.50
2022-12-13T20:29:54.347Z,4.50
2022-12-13T20:32:21.243Z,4.60
2022-12-13T20:34:51.665Z,4.60
2022-12-13T20:37:19.753Z,4.60
2022-12-13T20:39:46.314Z,4.50
2022-12-13T20:42:13.154Z,4.50
2022-12-13T20:44:39.759Z,4.40
2022-12-13T20:47:06.506Z,4.50
2022-12-13T20:49:33.081Z,4.60
2022-12-13T20:51:59.811Z,4.60
2022-12-13T20:54:26.510Z,4.50
2022-12-13T20:56:53.143Z,4.50
2022-12-13T20:59:19.834Z,4.50
2022-12-13T21:01:48.987Z,4.40
2022-12-13T21:04:16.754Z,4.50
2022-12-13T21:06:43.411Z,4.50
2022-12-13T21:09:11.379Z,4.50
2022-12-13T21:11:43.807Z,4.50
2022-12-13T21:14:17.001Z,4.50
2022-12-13T21:16:50.278Z,4.50
2022-12-13T21:19:21.451Z,4.60
2022-12-13T21:21:48.890Z,4.60
2022-12-13T21:24:16.971Z,4.60
2022-12-13T21:26:44.419Z,4.50
2022-12-13T21:29:18.267Z,4.50
2022-12-13T21:31:49.605Z,4.40
2022-12-13T21:34:17.145Z,4.40
2022-12-13T21:36:49.526Z,4.30
2022-12-13T21:39:19.184Z,4.30
2022-12-13T21:41:46.235Z,4.40
2022-12-13T21:44:15.148Z,4.50
2022-12-13T21:49:29.536Z,4.50
2022-12-13T21:51:56.206Z,4.60
2022-12-13T21:54:23.005Z,4.60
2022-12-13T21:57:08.157Z,4.60
2022-12-13T21:59:35.034Z,4.60
2022-12-13T22:02:15.878Z,4.50
2022-12-13T22:04:43.589Z,4.40
2022-12-13T22:07:19.141Z,4.20
2022-12-13T22:09:46.771Z,4.20
2022-12-13T22:12:35.776Z,4.20
2022-12-13T22:15:04.530Z,4.20
2022-12-13T22:17:35.714Z,4.20
2022-12-13T22:20:09.352Z,4.20
2022-12-13T22:22:39.044Z,4.30
2022-12-13T22:25:06.722Z,4.40
2022-12-13T22:27:33.417Z,4.40
2022-12-13T22:30:04.329Z,4.30
2022-12-13T22:32:32.065Z,4.40
2022-12-13T22:34:59.148Z,4.40
2022-12-13T22:37:26.248Z,4.30
2022-12-13T22:39:53.076Z,4.30
2022-12-13T22:42:20.662Z,4.40
2022-12-13T22:44:47.728Z,4.30
2022-12-13T22:47:14.367Z,4.40
2022-12-13T22:49:41.085Z,4.40
2022-12-13T22:52:09.053Z,4.30
2022-12-13T22:54:35.767Z,4.40
2022-12-13T22:57:05.493Z,4.40
2022-12-13T22:59:32.866Z,4.40
2022-12-13T23:02:02.701Z,4.40
2022-12-13T23:04:33.712Z,4.40
2022-12-13T23:07:00.558Z,4.40
2022-12-13T23:09:27.236Z,4.30
2022-12-13T23:12:12.697Z,4.30
2022-12-13T23:14:39.383Z,4.30
2022-12-13T23:17:06.285Z,4.30
2022-12-13T23:19:50.009Z,4.20
2022-12-13T23:22:24.993Z,4.20
2022-12-13T23:24:52.661Z,4.30
2022-12-13T23:27:21.503Z,4.30
2022-12-13T23:29:48.447Z,4.30
2022-12-13T23:32:15.576Z,4.30
2022-12-13T23:34:42.261Z,4.40
2022-12-13T23:37:09.103Z,4.30
2022-12-13T23:39:35.756Z,4.30
2022-12-13T23:42:02.409Z,4.30
2022-12-13T23:44:28.983Z,4.30
2022-12-13T23:46:56.023Z,4.20
2022-12-13T23:49:22.671Z,4.20
2022-12-13T23:51:49.369Z,4.30
2022-12-13T23:54:19.257Z,4.30
2022-12-13T23:56:46.499Z,4.30
2022-12-13T23:59:13.275Z,4.30
